Flugplatz Erfurt

Bericht für EDDE

vom 20.01. um 05:20 UTC

Wind 3 kt aus 210°

Sichtweite 10 km oder mehr

gute Sicht, keine Wolken < 5000 ft, keine CB, keine Wettererscheinungen (CAVOK)

Temperatur -8.0°C

Taupunkt -10.0°C

Luftfeuchtigkeit 85%

Luftdruck 1014 hPa

keine wesentliche Wetteränderung innerhalb den nächsten 2 Stunden zu erwarten

EDDE 200520Z 21003KT CAVOK M08/M10 Q1014 NOSIG

Prognose für EDDE

vom 19.01. um 23:00 UTC

Zwischen 00:00 UTC und 00:00 UTC

variable Windrichtung mit 3 kt

Sichtweite 10 km oder mehr

keine signifikanten Wettererscheinungen

keine Wolken

TAF EDDE 192300Z 2000/2024 VRB03KT CAVOK
Impressum